sensor_id;sensor_type;location;lat;lon;timestamp;P1;durP1;ratioP1;P2;durP2;ratioP2
10586;SDS011;5341;47.606;7.576;2023-07-16T00:02:02;2.22;;;1.60;;
10586;SDS011;5341;47.606;7.576;2023-07-16T00:04:32;2.10;;;1.40;;
10586;SDS011;5341;47.606;7.576;2023-07-16T00:07:00;1.75;;;1.30;;
10586;SDS011;5341;47.606;7.576;2023-07-16T00:09:27;1.73;;;1.40;;
10586;SDS011;5341;47.606;7.576;2023-07-16T00:11:55;4.50;;;1.70;;
10586;SDS011;5341;47.606;7.576;2023-07-16T00:14:23;1.63;;;1.40;;
10586;SDS011;5341;47.606;7.576;2023-07-16T00:16:50;1.90;;;1.30;;
10586;SDS011;5341;47.606;7.576;2023-07-16T00:19:18;2.05;;;1.30;;
10586;SDS011;5341;47.606;7.576;2023-07-16T00:21:47;3.72;;;1.40;;
10586;SDS011;5341;47.606;7.576;2023-07-16T00:24:14;1.83;;;1.40;;
10586;SDS011;5341;47.606;7.576;2023-07-16T00:26:42;1.42;;;1.20;;
10586;SDS011;5341;47.606;7.576;2023-07-16T00:29:09;2.00;;;1.50;;
10586;SDS011;5341;47.606;7.576;2023-07-16T00:31:37;3.85;;;1.50;;
10586;SDS011;5341;47.606;7.576;2023-07-16T00:34:05;2.83;;;1.45;;
10586;SDS011;5341;47.606;7.576;2023-07-16T00:36:32;1.95;;;1.30;;
10586;SDS011;5341;47.606;7.576;2023-07-16T00:39:01;2.38;;;1.48;;
10586;SDS011;5341;47.606;7.576;2023-07-16T00:41:29;2.40;;;1.60;;
10586;SDS011;5341;47.606;7.576;2023-07-16T00:43:56;1.77;;;1.20;;
10586;SDS011;5341;47.606;7.576;2023-07-16T00:46:24;5.40;;;1.70;;
10586;SDS011;5341;47.606;7.576;2023-07-16T00:48:52;2.13;;;1.60;;
10586;SDS011;5341;47.606;7.576;2023-07-16T00:51:21;2.90;;;1.45;;
10586;SDS011;5341;47.606;7.576;2023-07-16T00:53:52;1.83;;;1.30;;
10586;SDS011;5341;47.606;7.576;2023-07-16T00:56:23;1.60;;;1.40;;
10586;SDS011;5341;47.606;7.576;2023-07-16T00:58:50;2.22;;;1.50;;
10586;SDS011;5341;47.606;7.576;2023-07-16T01:01:20;2.85;;;1.38;;
10586;SDS011;5341;47.606;7.576;2023-07-16T01:03:48;1.92;;;1.25;;
10586;SDS011;5341;47.606;7.576;2023-07-16T01:06:26;2.22;;;1.35;;
10586;SDS011;5341;47.606;7.576;2023-07-16T01:09:01;4.03;;;1.60;;
10586;SDS011;5341;47.606;7.576;2023-07-16T01:11:31;3.70;;;1.65;;
10586;SDS011;5341;47.606;7.576;2023-07-16T01:14:02;1.65;;;1.52;;
10586;SDS011;5341;47.606;7.576;2023-07-16T01:16:30;1.95;;;1.35;;
10586;SDS011;5341;47.606;7.576;2023-07-16T01:18:58;2.00;;;1.50;;
10586;SDS011;5341;47.606;7.576;2023-07-16T01:21:27;1.83;;;1.30;;
10586;SDS011;5341;47.606;7.576;2023-07-16T01:24:05;2.78;;;1.52;;
10586;SDS011;5341;47.606;7.576;2023-07-16T01:27:11;3.60;;;1.42;;
10586;SDS011;5341;47.606;7.576;2023-07-16T01:29:56;2.55;;;1.33;;
10586;SDS011;5341;47.606;7.576;2023-07-16T01:32:29;2.55;;;1.40;;
10586;SDS011;5341;47.606;7.576;2023-07-16T01:35:00;2.22;;;1.70;;
10586;SDS011;5341;47.606;7.576;2023-07-16T01:37:30;1.67;;;1.45;;
10586;SDS011;5341;47.606;7.576;2023-07-16T01:39:57;1.48;;;1.30;;
10586;SDS011;5341;47.606;7.576;2023-07-16T01:42:25;1.15;;;1.05;;
10586;SDS011;5341;47.606;7.576;2023-07-16T01:44:53;2.47;;;1.60;;
10586;SDS011;5341;47.606;7.576;2023-07-16T01:47:23;1.90;;;1.27;;
10586;SDS011;5341;47.606;7.576;2023-07-16T01:49:57;1.60;;;1.30;;
10586;SDS011;5341;47.606;7.576;2023-07-16T01:52:24;1.55;;;1.45;;
10586;SDS011;5341;47.606;7.576;2023-07-16T01:54:53;1.58;;;1.20;;
10586;SDS011;5341;47.606;7.576;2023-07-16T01:57:20;1.95;;;1.40;;
10586;SDS011;5341;47.606;7.576;2023-07-16T01:59:48;4.30;;;1.50;;
10586;SDS011;5341;47.606;7.576;2023-07-16T02:02:16;3.17;;;1.52;;
10586;SDS011;5341;47.606;7.576;2023-07-16T02:04:46;2.30;;;1.45;;
10586;SDS011;5341;47.606;7.576;2023-07-16T02:07:13;2.35;;;1.40;;
10586;SDS011;5341;47.606;7.576;2023-07-16T02:09:41;1.50;;;1.40;;
10586;SDS011;5341;47.606;7.576;2023-07-16T02:12:09;1.50;;;1.40;;
10586;SDS011;5341;47.606;7.576;2023-07-16T02:14:36;2.83;;;1.45;;
10586;SDS011;5341;47.606;7.576;2023-07-16T02:17:04;2.70;;;1.30;;
10586;SDS011;5341;47.606;7.576;2023-07-16T02:19:32;1.77;;;1.27;;
10586;SDS011;5341;47.606;7.576;2023-07-16T02:22:01;1.60;;;1.40;;
10586;SDS011;5341;47.606;7.576;2023-07-16T02:24:29;1.23;;;1.10;;
10586;SDS011;5341;47.606;7.576;2023-07-16T02:26:56;1.75;;;1.42;;
10586;SDS011;5341;47.606;7.576;2023-07-16T02:29:24;2.58;;;1.40;;
10586;SDS011;5341;47.606;7.576;2023-07-16T02:31:53;1.40;;;1.30;;
10586;SDS011;5341;47.606;7.576;2023-07-16T02:34:20;3.25;;;1.20;;
10586;SDS011;5341;47.606;7.576;2023-07-16T02:36:47;2.05;;;1.50;;
10586;SDS011;5341;47.606;7.576;2023-07-16T02:39:15;1.67;;;1.50;;
10586;SDS011;5341;47.606;7.576;2023-07-16T02:41:43;1.58;;;1.30;;
10586;SDS011;5341;47.606;7.576;2023-07-16T02:44:11;1.90;;;1.35;;
10586;SDS011;5341;47.606;7.576;2023-07-16T02:46:42;1.60;;;1.50;;
10586;SDS011;5341;47.606;7.576;2023-07-16T02:49:10;5.45;;;1.85;;
10586;SDS011;5341;47.606;7.576;2023-07-16T02:51:38;2.20;;;1.55;;
10586;SDS011;5341;47.606;7.576;2023-07-16T02:54:05;2.35;;;1.60;;
10586;SDS011;5341;47.606;7.576;2023-07-16T02:56:35;2.03;;;1.48;;
10586;SDS011;5341;47.606;7.576;2023-07-16T02:59:02;1.52;;;1.40;;
10586;SDS011;5341;47.606;7.576;2023-07-16T03:01:30;2.60;;;1.50;;
10586;SDS011;5341;47.606;7.576;2023-07-16T03:03:58;1.60;;;1.50;;
10586;SDS011;5341;47.606;7.576;2023-07-16T03:06:25;1.92;;;1.60;;
10586;SDS011;5341;47.606;7.576;2023-07-16T03:08:53;1.65;;;1.42;;
10586;SDS011;5341;47.606;7.576;2023-07-16T03:11:20;1.65;;;1.50;;
10586;SDS011;5341;47.606;7.576;2023-07-16T03:13:49;2.20;;;1.48;;
10586;SDS011;5341;47.606;7.576;2023-07-16T03:16:17;3.08;;;1.40;;
10586;SDS011;5341;47.606;7.576;2023-07-16T03:18:44;1.98;;;1.40;;
10586;SDS011;5341;47.606;7.576;2023-07-16T03:21:16;4.45;;;1.40;;
10586;SDS011;5341;47.606;7.576;2023-07-16T03:24:04;1.85;;;1.30;;
10586;SDS011;5341;47.606;7.576;2023-07-16T03:26:32;1.60;;;1.40;;
10586;SDS011;5341;47.606;7.576;2023-07-16T03:29:01;1.67;;;1.40;;
10586;SDS011;5341;47.606;7.576;2023-07-16T03:31:29;1.50;;;1.25;;
10586;SDS011;5341;47.606;7.576;2023-07-16T03:33:57;1.75;;;1.30;;
10586;SDS011;5341;47.606;7.576;2023-07-16T03:36:28;2.28;;;1.33;;
10586;SDS011;5341;47.606;7.576;2023-07-16T03:38:56;2.45;;;1.50;;
10586;SDS011;5341;47.606;7.576;2023-07-16T03:41:23;2.65;;;1.58;;
10586;SDS011;5341;47.606;7.576;2023-07-16T03:43:51;1.70;;;1.35;;
10586;SDS011;5341;47.606;7.576;2023-07-16T03:46:21;1.90;;;1.50;;
10586;SDS011;5341;47.606;7.576;2023-07-16T03:48:49;2.88;;;1.58;;
10586;SDS011;5341;47.606;7.576;2023-07-16T03:51:18;3.00;;;1.50;;
10586;SDS011;5341;47.606;7.576;2023-07-16T03:53:45;1.60;;;1.50;;
10586;SDS011;5341;47.606;7.576;2023-07-16T03:56:13;4.43;;;1.70;;
10586;SDS011;5341;47.606;7.576;2023-07-16T03:58:41;2.60;;;1.65;;
10586;SDS011;5341;47.606;7.576;2023-07-16T04:01:09;2.08;;;1.40;;
10586;SDS011;5341;47.606;7.576;2023-07-16T04:03:38;2.10;;;1.63;;
10586;SDS011;5341;47.606;7.576;2023-07-16T04:06:07;2.83;;;1.48;;
10586;SDS011;5341;47.606;7.576;2023-07-16T04:08:36;2.50;;;1.40;;
10586;SDS011;5341;47.606;7.576;2023-07-16T04:11:03;2.40;;;1.67;;
10586;SDS011;5341;47.606;7.576;2023-07-16T04:13:31;2.13;;;1.40;;
10586;SDS011;5341;47.606;7.576;2023-07-16T04:15:59;3.67;;;1.60;;
10586;SDS011;5341;47.606;7.576;2023-07-16T04:18:27;2.35;;;1.48;;
10586;SDS011;5341;47.606;7.576;2023-07-16T04:20:56;2.20;;;1.40;;
10586;SDS011;5341;47.606;7.576;2023-07-16T04:23:23;1.65;;;1.40;;
10586;SDS011;5341;47.606;7.576;2023-07-16T04:25:51;2.35;;;1.60;;
10586;SDS011;5341;47.606;7.576;2023-07-16T04:28:19;1.90;;;1.50;;
10586;SDS011;5341;47.606;7.576;2023-07-16T04:30:47;2.65;;;1.67;;
10586;SDS011;5341;47.606;7.576;2023-07-16T04:33:14;1.92;;;1.42;;
10586;SDS011;5341;47.606;7.576;2023-07-16T04:35:42;1.75;;;1.40;;
10586;SDS011;5341;47.606;7.576;2023-07-16T04:38:11;2.60;;;1.60;;
10586;SDS011;5341;47.606;7.576;2023-07-16T04:40:38;2.08;;;1.40;;
10586;SDS011;5341;47.606;7.576;2023-07-16T04:43:06;1.77;;;1.50;;
10586;SDS011;5341;47.606;7.576;2023-07-16T04:45:33;2.80;;;1.60;;
10586;SDS011;5341;47.606;7.576;2023-07-16T04:48:01;3.45;;;1.45;;
10586;SDS011;5341;47.606;7.576;2023-07-16T04:50:29;2.13;;;1.50;;
10586;SDS011;5341;47.606;7.576;2023-07-16T04:52:57;2.92;;;1.50;;
10586;SDS011;5341;47.606;7.576;2023-07-16T04:55:26;2.85;;;1.40;;
10586;SDS011;5341;47.606;7.576;2023-07-16T04:57:53;1.75;;;1.45;;
10586;SDS011;5341;47.606;7.576;2023-07-16T05:00:23;1.88;;;1.48;;
10586;SDS011;5341;47.606;7.576;2023-07-16T05:02:51;2.45;;;1.50;;
10586;SDS011;5341;47.606;7.576;2023-07-16T05:05:18;1.77;;;1.30;;
10586;SDS011;5341;47.606;7.576;2023-07-16T05:07:46;2.63;;;1.70;;
10586;SDS011;5341;47.606;7.576;2023-07-16T05:10:13;2.63;;;1.60;;
10586;SDS011;5341;47.606;7.576;2023-07-16T05:12:43;2.00;;;1.38;;
10586;SDS011;5341;47.606;7.576;2023-07-16T05:15:10;2.45;;;1.63;;
10586;SDS011;5341;47.606;7.576;2023-07-16T05:17:37;4.45;;;1.67;;
10586;SDS011;5341;47.606;7.576;2023-07-16T05:20:05;2.05;;;1.30;;
10586;SDS011;5341;47.606;7.576;2023-07-16T05:22:34;1.60;;;1.38;;
10586;SDS011;5341;47.606;7.576;2023-07-16T05:25:02;2.30;;;1.73;;
10586;SDS011;5341;47.606;7.576;2023-07-16T05:27:30;1.55;;;1.30;;
10586;SDS011;5341;47.606;7.576;2023-07-16T05:29:59;1.65;;;1.42;;
10586;SDS011;5341;47.606;7.576;2023-07-16T05:32:27;2.00;;;1.50;;
10586;SDS011;5341;47.606;7.576;2023-07-16T05:34:55;2.13;;;1.70;;
10586;SDS011;5341;47.606;7.576;2023-07-16T05:37:22;1.70;;;1.50;;
10586;SDS011;5341;47.606;7.576;2023-07-16T05:39:51;2.15;;;1.38;;
10586;SDS011;5341;47.606;7.576;2023-07-16T05:42:20;1.92;;;1.52;;
10586;SDS011;5341;47.606;7.576;2023-07-16T05:44:48;2.85;;;1.65;;
10586;SDS011;5341;47.606;7.576;2023-07-16T05:47:19;2.38;;;1.40;;
10586;SDS011;5341;47.606;7.576;2023-07-16T05:49:47;2.58;;;1.60;;
10586;SDS011;5341;47.606;7.576;2023-07-16T05:52:15;2.95;;;1.60;;
10586;SDS011;5341;47.606;7.576;2023-07-16T05:54:43;2.47;;;1.65;;
10586;SDS011;5341;47.606;7.576;2023-07-16T05:57:12;1.98;;;1.60;;
10586;SDS011;5341;47.606;7.576;2023-07-16T05:59:40;2.20;;;1.58;;
10586;SDS011;5341;47.606;7.576;2023-07-16T06:02:08;3.25;;;1.50;;
10586;SDS011;5341;47.606;7.576;2023-07-16T06:04:37;2.35;;;1.67;;
10586;SDS011;5341;47.606;7.576;2023-07-16T06:07:04;5.00;;;1.67;;
10586;SDS011;5341;47.606;7.576;2023-07-16T06:09:33;1.60;;;1.50;;
10586;SDS011;5341;47.606;7.576;2023-07-16T06:12:00;6.10;;;1.70;;
10586;SDS011;5341;47.606;7.576;2023-07-16T06:14:29;4.60;;;1.70;;
10586;SDS011;5341;47.606;7.576;2023-07-16T06:16:56;1.95;;;1.60;;
10586;SDS011;5341;47.606;7.576;2023-07-16T06:19:24;2.65;;;1.52;;
10586;SDS011;5341;47.606;7.576;2023-07-16T06:21:53;3.08;;;1.75;;
10586;SDS011;5341;47.606;7.576;2023-07-16T06:24:22;2.00;;;1.50;;
10586;SDS011;5341;47.606;7.576;2023-07-16T06:26:49;2.70;;;1.63;;
10586;SDS011;5341;47.606;7.576;2023-07-16T06:29:16;2.35;;;1.70;;
10586;SDS011;5341;47.606;7.576;2023-07-16T06:31:53;2.00;;;1.60;;
10586;SDS011;5341;47.606;7.576;2023-07-16T06:34:23;2.58;;;1.70;;
10586;SDS011;5341;47.606;7.576;2023-07-16T06:36:53;2.67;;;1.80;;
10586;SDS011;5341;47.606;7.576;2023-07-16T06:39:20;2.97;;;1.83;;
10586;SDS011;5341;47.606;7.576;2023-07-16T06:41:48;2.80;;;1.73;;
10586;SDS011;5341;47.606;7.576;2023-07-16T06:44:15;2.35;;;1.70;;
10586;SDS011;5341;47.606;7.576;2023-07-16T06:46:43;3.33;;;1.73;;
10586;SDS011;5341;47.606;7.576;2023-07-16T06:49:10;3.58;;;1.63;;
10586;SDS011;5341;47.606;7.576;2023-07-16T06:51:38;2.78;;;1.55;;
10586;SDS011;5341;47.606;7.576;2023-07-16T06:54:07;2.88;;;1.40;;
10586;SDS011;5341;47.606;7.576;2023-07-16T06:56:34;4.13;;;2.00;;
10586;SDS011;5341;47.606;7.576;2023-07-16T06:59:02;5.38;;;1.90;;
10586;SDS011;5341;47.606;7.576;2023-07-16T07:01:29;3.58;;;1.92;;
10586;SDS011;5341;47.606;7.576;2023-07-16T07:03:56;4.13;;;2.20;;
10586;SDS011;5341;47.606;7.576;2023-07-16T07:06:24;3.08;;;2.00;;
10586;SDS011;5341;47.606;7.576;2023-07-16T07:08:51;3.67;;;1.83;;
10586;SDS011;5341;47.606;7.576;2023-07-16T07:11:20;3.60;;;1.83;;
10586;SDS011;5341;47.606;7.576;2023-07-16T07:13:47;4.82;;;2.03;;
10586;SDS011;5341;47.606;7.576;2023-07-16T07:16:15;3.88;;;1.85;;
10586;SDS011;5341;47.606;7.576;2023-07-16T07:18:43;3.38;;;1.80;;
10586;SDS011;5341;47.606;7.576;2023-07-16T07:21:10;3.75;;;1.77;;
10586;SDS011;5341;47.606;7.576;2023-07-16T07:23:38;5.35;;;2.10;;
10586;SDS011;5341;47.606;7.576;2023-07-16T07:26:05;4.65;;;1.88;;
10586;SDS011;5341;47.606;7.576;2023-07-16T07:28:34;4.55;;;2.08;;
10586;SDS011;5341;47.606;7.576;2023-07-16T07:31:01;4.20;;;1.90;;
10586;SDS011;5341;47.606;7.576;2023-07-16T07:33:29;2.95;;;1.80;;
10586;SDS011;5341;47.606;7.576;2023-07-16T07:35:57;2.63;;;1.88;;
10586;SDS011;5341;47.606;7.576;2023-07-16T07:38:25;3.83;;;1.83;;
10586;SDS011;5341;47.606;7.576;2023-07-16T07:40:54;3.40;;;1.90;;
10586;SDS011;5341;47.606;7.576;2023-07-16T07:43:24;2.90;;;1.95;;
10586;SDS011;5341;47.606;7.576;2023-07-16T07:45:53;3.85;;;2.00;;
10586;SDS011;5341;47.606;7.576;2023-07-16T07:48:20;6.45;;;2.00;;
10586;SDS011;5341;47.606;7.576;2023-07-16T07:50:48;6.28;;;2.13;;
10586;SDS011;5341;47.606;7.576;2023-07-16T07:53:15;3.95;;;1.90;;
10586;SDS011;5341;47.606;7.576;2023-07-16T07:55:44;4.68;;;2.15;;
10586;SDS011;5341;47.606;7.576;2023-07-16T07:58:12;6.55;;;2.08;;
10586;SDS011;5341;47.606;7.576;2023-07-16T08:00:39;5.70;;;1.80;;
10586;SDS011;5341;47.606;7.576;2023-07-16T08:03:08;3.45;;;1.90;;
10586;SDS011;5341;47.606;7.576;2023-07-16T08:05:35;5.10;;;2.08;;
10586;SDS011;5341;47.606;7.576;2023-07-16T08:08:03;5.45;;;1.95;;
10586;SDS011;5341;47.606;7.576;2023-07-16T08:10:31;5.10;;;2.10;;
10586;SDS011;5341;47.606;7.576;2023-07-16T08:12:58;4.70;;;2.10;;
10586;SDS011;5341;47.606;7.576;2023-07-16T08:15:26;4.10;;;2.20;;
10586;SDS011;5341;47.606;7.576;2023-07-16T08:17:53;3.28;;;1.85;;
10586;SDS011;5341;47.606;7.576;2023-07-16T08:20:26;3.60;;;2.10;;
10586;SDS011;5341;47.606;7.576;2023-07-16T08:22:54;2.72;;;1.55;;
10586;SDS011;5341;47.606;7.576;2023-07-16T08:25:21;4.15;;;2.03;;
10586;SDS011;5341;47.606;7.576;2023-07-16T08:27:49;4.60;;;2.03;;
10586;SDS011;5341;47.606;7.576;2023-07-16T08:30:17;6.50;;;2.00;;
10586;SDS011;5341;47.606;7.576;2023-07-16T08:32:44;3.85;;;2.10;;
10586;SDS011;5341;47.606;7.576;2023-07-16T08:35:12;3.45;;;1.80;;
10586;SDS011;5341;47.606;7.576;2023-07-16T08:37:43;3.67;;;1.90;;
10586;SDS011;5341;47.606;7.576;2023-07-16T08:40:11;4.65;;;1.92;;
10586;SDS011;5341;47.606;7.576;2023-07-16T08:42:39;4.72;;;2.17;;
10586;SDS011;5341;47.606;7.576;2023-07-16T08:45:08;4.07;;;2.10;;
10586;SDS011;5341;47.606;7.576;2023-07-16T08:47:37;3.58;;;2.05;;
10586;SDS011;5341;47.606;7.576;2023-07-16T08:50:05;4.68;;;2.10;;
10586;SDS011;5341;47.606;7.576;2023-07-16T08:52:33;3.92;;;1.90;;
10586;SDS011;5341;47.606;7.576;2023-07-16T08:55:02;4.65;;;2.08;;
10586;SDS011;5341;47.606;7.576;2023-07-16T08:57:30;5.38;;;2.03;;
10586;SDS011;5341;47.606;7.576;2023-07-16T08:59:57;3.60;;;1.80;;
10586;SDS011;5341;47.606;7.576;2023-07-16T09:02:25;4.30;;;1.88;;
10586;SDS011;5341;47.606;7.576;2023-07-16T09:04:53;3.80;;;1.90;;
10586;SDS011;5341;47.606;7.576;2023-07-16T09:07:21;4.88;;;2.10;;
10586;SDS011;5341;47.606;7.576;2023-07-16T09:09:54;5.53;;;2.13;;
10586;SDS011;5341;47.606;7.576;2023-07-16T09:12:26;4.15;;;1.98;;
10586;SDS011;5341;47.606;7.576;2023-07-16T09:14:55;4.10;;;1.88;;
10586;SDS011;5341;47.606;7.576;2023-07-16T09:17:22;3.55;;;2.00;;
10586;SDS011;5341;47.606;7.576;2023-07-16T09:19:50;4.57;;;2.00;;
10586;SDS011;5341;47.606;7.576;2023-07-16T09:22:18;4.68;;;1.95;;
10586;SDS011;5341;47.606;7.576;2023-07-16T09:24:46;5.00;;;2.03;;
10586;SDS011;5341;47.606;7.576;2023-07-16T09:27:14;3.10;;;2.20;;
10586;SDS011;5341;47.606;7.576;2023-07-16T09:29:44;3.97;;;1.90;;
10586;SDS011;5341;47.606;7.576;2023-07-16T09:32:14;6.18;;;2.30;;
10586;SDS011;5341;47.606;7.576;2023-07-16T09:34:42;2.72;;;1.77;;
10586;SDS011;5341;47.606;7.576;2023-07-16T09:37:17;5.88;;;2.22;;
10586;SDS011;5341;47.606;7.576;2023-07-16T09:39:48;3.70;;;2.03;;
10586;SDS011;5341;47.606;7.576;2023-07-16T09:42:20;4.60;;;2.30;;
10586;SDS011;5341;47.606;7.576;2023-07-16T09:44:50;3.75;;;1.92;;
10586;SDS011;5341;47.606;7.576;2023-07-16T09:47:20;4.78;;;2.20;;
10586;SDS011;5341;47.606;7.576;2023-07-16T09:49:47;3.40;;;1.80;;
10586;SDS011;5341;47.606;7.576;2023-07-16T09:52:15;4.60;;;1.95;;
10586;SDS011;5341;47.606;7.576;2023-07-16T09:54:42;4.38;;;1.88;;
10586;SDS011;5341;47.606;7.576;2023-07-16T09:57:13;4.65;;;1.90;;
10586;SDS011;5341;47.606;7.576;2023-07-16T09:59:42;4.32;;;2.15;;
10586;SDS011;5341;47.606;7.576;2023-07-16T10:02:13;4.20;;;2.08;;
10586;SDS011;5341;47.606;7.576;2023-07-16T10:04:41;3.35;;;2.03;;
10586;SDS011;5341;47.606;7.576;2023-07-16T10:07:18;4.95;;;2.08;;
10586;SDS011;5341;47.606;7.576;2023-07-16T10:09:51;4.15;;;2.45;;
10586;SDS011;5341;47.606;7.576;2023-07-16T10:12:22;3.38;;;2.22;;
10586;SDS011;5341;47.606;7.576;2023-07-16T10:14:51;4.30;;;2.40;;
10586;SDS011;5341;47.606;7.576;2023-07-16T10:17:24;4.57;;;2.25;;
10586;SDS011;5341;47.606;7.576;2023-07-16T10:19:55;3.75;;;2.20;;
10586;SDS011;5341;47.606;7.576;2023-07-16T10:22:36;3.28;;;2.38;;
10586;SDS011;5341;47.606;7.576;2023-07-16T10:25:07;6.53;;;2.63;;
10586;SDS011;5341;47.606;7.576;2023-07-16T10:27:39;3.70;;;2.40;;
10586;SDS011;5341;47.606;7.576;2023-07-16T10:30:07;5.22;;;2.58;;
10586;SDS011;5341;47.606;7.576;2023-07-16T10:32:37;4.32;;;2.22;;
10586;SDS011;5341;47.606;7.576;2023-07-16T10:35:06;5.07;;;1.90;;
10586;SDS011;5341;47.606;7.576;2023-07-16T10:37:34;3.83;;;2.15;;
10586;SDS011;5341;47.606;7.576;2023-07-16T10:40:03;4.22;;;2.08;;
10586;SDS011;5341;47.606;7.576;2023-07-16T10:42:32;4.55;;;2.40;;
10586;SDS011;5341;47.606;7.576;2023-07-16T10:45:00;4.07;;;2.10;;
10586;SDS011;5341;47.606;7.576;2023-07-16T10:47:30;3.67;;;2.20;;
10586;SDS011;5341;47.606;7.576;2023-07-16T10:50:00;3.95;;;2.20;;
10586;SDS011;5341;47.606;7.576;2023-07-16T10:52:31;3.70;;;2.10;;
10586;SDS011;5341;47.606;7.576;2023-07-16T10:54:59;6.13;;;2.33;;
10586;SDS011;5341;47.606;7.576;2023-07-16T10:57:26;3.58;;;2.15;;
10586;SDS011;5341;47.606;7.576;2023-07-16T10:59:56;4.22;;;2.30;;
10586;SDS011;5341;47.606;7.576;2023-07-16T11:02:24;5.30;;;2.20;;
10586;SDS011;5341;47.606;7.576;2023-07-16T11:04:52;4.57;;;2.00;;
10586;SDS011;5341;47.606;7.576;2023-07-16T11:07:26;5.05;;;1.98;;
10586;SDS011;5341;47.606;7.576;2023-07-16T11:09:54;4.38;;;1.90;;
10586;SDS011;5341;47.606;7.576;2023-07-16T11:12:22;3.38;;;2.10;;
10586;SDS011;5341;47.606;7.576;2023-07-16T11:14:50;7.85;;;2.08;;
10586;SDS011;5341;47.606;7.576;2023-07-16T11:17:20;4.32;;;2.30;;
10586;SDS011;5341;47.606;7.576;2023-07-16T11:19:50;4.25;;;2.17;;
10586;SDS011;5341;47.606;7.576;2023-07-16T11:22:18;4.30;;;2.55;;
10586;SDS011;5341;47.606;7.576;2023-07-16T11:24:49;7.57;;;2.53;;
10586;SDS011;5341;47.606;7.576;2023-07-16T11:27:18;4.45;;;2.25;;
10586;SDS011;5341;47.606;7.576;2023-07-16T11:29:47;4.88;;;2.38;;
10586;SDS011;5341;47.606;7.576;2023-07-16T11:32:25;5.45;;;2.42;;
10586;SDS011;5341;47.606;7.576;2023-07-16T11:34:54;4.07;;;2.20;;
10586;SDS011;5341;47.606;7.576;2023-07-16T11:37:22;4.53;;;2.20;;
10586;SDS011;5341;47.606;7.576;2023-07-16T11:39:56;3.08;;;2.10;;
10586;SDS011;5341;47.606;7.576;2023-07-16T11:42:27;4.15;;;2.08;;
10586;SDS011;5341;47.606;7.576;2023-07-16T11:44:55;2.88;;;2.05;;
10586;SDS011;5341;47.606;7.576;2023-07-16T11:47:23;6.82;;;2.30;;
10586;SDS011;5341;47.606;7.576;2023-07-16T11:49:50;3.50;;;2.33;;
10586;SDS011;5341;47.606;7.576;2023-07-16T11:52:22;4.43;;;2.08;;
10586;SDS011;5341;47.606;7.576;2023-07-16T11:54:51;3.60;;;2.08;;
10586;SDS011;5341;47.606;7.576;2023-07-16T11:57:20;3.40;;;2.00;;
10586;SDS011;5341;47.606;7.576;2023-07-16T11:59:48;4.57;;;2.10;;
10586;SDS011;5341;47.606;7.576;2023-07-16T12:02:16;4.45;;;2.17;;
10586;SDS011;5341;47.606;7.576;2023-07-16T12:04:43;3.83;;;2.13;;
10586;SDS011;5341;47.606;7.576;2023-07-16T12:07:11;4.28;;;2.13;;
10586;SDS011;5341;47.606;7.576;2023-07-16T12:09:39;4.50;;;2.15;;
10586;SDS011;5341;47.606;7.576;2023-07-16T12:12:08;4.55;;;2.10;;
10586;SDS011;5341;47.606;7.576;2023-07-16T12:14:37;4.65;;;2.38;;
10586;SDS011;5341;47.606;7.576;2023-07-16T12:17:04;3.22;;;1.90;;
10586;SDS011;5341;47.606;7.576;2023-07-16T12:19:32;5.13;;;2.35;;
10586;SDS011;5341;47.606;7.576;2023-07-16T12:22:00;3.67;;;2.20;;
10586;SDS011;5341;47.606;7.576;2023-07-16T12:24:28;6.13;;;2.35;;
10586;SDS011;5341;47.606;7.576;2023-07-16T12:26:56;4.28;;;2.22;;
10586;SDS011;5341;47.606;7.576;2023-07-16T12:29:31;4.05;;;2.30;;
10586;SDS011;5341;47.606;7.576;2023-07-16T12:32:00;3.85;;;2.00;;
10586;SDS011;5341;47.606;7.576;2023-07-16T12:34:28;3.75;;;2.15;;
10586;SDS011;5341;47.606;7.576;2023-07-16T12:36:55;5.22;;;2.20;;
10586;SDS011;5341;47.606;7.576;2023-07-16T12:39:23;4.57;;;2.20;;
10586;SDS011;5341;47.606;7.576;2023-07-16T12:41:50;3.75;;;2.13;;
10586;SDS011;5341;47.606;7.576;2023-07-16T12:44:18;3.90;;;1.80;;
10586;SDS011;5341;47.606;7.576;2023-07-16T12:46:47;3.42;;;2.15;;
10586;SDS011;5341;47.606;7.576;2023-07-16T12:49:16;4.15;;;1.98;;
10586;SDS011;5341;47.606;7.576;2023-07-16T12:51:44;6.72;;;2.10;;
10586;SDS011;5341;47.606;7.576;2023-07-16T12:54:12;5.13;;;1.95;;
10586;SDS011;5341;47.606;7.576;2023-07-16T12:56:39;5.20;;;2.50;;
10586;SDS011;5341;47.606;7.576;2023-07-16T12:59:07;4.57;;;2.15;;
10586;SDS011;5341;47.606;7.576;2023-07-16T13:01:35;4.18;;;2.03;;
10586;SDS011;5341;47.606;7.576;2023-07-16T13:04:02;3.22;;;2.10;;
10586;SDS011;5341;47.606;7.576;2023-07-16T13:06:31;4.05;;;2.17;;
10586;SDS011;5341;47.606;7.576;2023-07-16T13:08:59;3.40;;;1.92;;
10586;SDS011;5341;47.606;7.576;2023-07-16T13:11:26;4.00;;;2.10;;
10586;SDS011;5341;47.606;7.576;2023-07-16T13:13:55;5.05;;;2.22;;
10586;SDS011;5341;47.606;7.576;2023-07-16T13:16:27;4.63;;;2.20;;
10586;SDS011;5341;47.606;7.576;2023-07-16T13:18:57;4.63;;;2.10;;
10586;SDS011;5341;47.606;7.576;2023-07-16T13:21:35;3.35;;;2.10;;
10586;SDS011;5341;47.606;7.576;2023-07-16T13:24:03;5.10;;;2.22;;
10586;SDS011;5341;47.606;7.576;2023-07-16T13:26:31;3.97;;;2.10;;
10586;SDS011;5341;47.606;7.576;2023-07-16T13:28:59;4.60;;;2.15;;
10586;SDS011;5341;47.606;7.576;2023-07-16T13:31:27;3.53;;;1.92;;
10586;SDS011;5341;47.606;7.576;2023-07-16T13:33:54;3.38;;;1.90;;
10586;SDS011;5341;47.606;7.576;2023-07-16T13:36:21;4.60;;;2.03;;
10586;SDS011;5341;47.606;7.576;2023-07-16T13:38:50;4.25;;;2.05;;
10586;SDS011;5341;47.606;7.576;2023-07-16T13:41:18;6.45;;;2.05;;
10586;SDS011;5341;47.606;7.576;2023-07-16T13:43:45;4.45;;;2.25;;
10586;SDS011;5341;47.606;7.576;2023-07-16T13:46:12;5.13;;;2.42;;
10586;SDS011;5341;47.606;7.576;2023-07-16T13:48:40;3.85;;;2.20;;
10586;SDS011;5341;47.606;7.576;2023-07-16T13:51:07;3.78;;;2.20;;
10586;SDS011;5341;47.606;7.576;2023-07-16T13:53:35;6.43;;;2.53;;
10586;SDS011;5341;47.606;7.576;2023-07-16T13:56:04;5.65;;;2.20;;
10586;SDS011;5341;47.606;7.576;2023-07-16T13:58:33;4.03;;;2.20;;
10586;SDS011;5341;47.606;7.576;2023-07-16T14:01:01;3.85;;;2.22;;
10586;SDS011;5341;47.606;7.576;2023-07-16T14:03:28;3.97;;;2.10;;
10586;SDS011;5341;47.606;7.576;2023-07-16T14:05:55;5.60;;;2.45;;
10586;SDS011;5341;47.606;7.576;2023-07-16T14:08:23;5.50;;;2.33;;
10586;SDS011;5341;47.606;7.576;2023-07-16T14:10:53;4.28;;;2.30;;
10586;SDS011;5341;47.606;7.576;2023-07-16T14:13:22;5.75;;;2.25;;
10586;SDS011;5341;47.606;7.576;2023-07-16T14:15:50;3.65;;;2.03;;
10586;SDS011;5341;47.606;7.576;2023-07-16T14:18:17;5.15;;;2.30;;
10586;SDS011;5341;47.606;7.576;2023-07-16T14:20:45;2.65;;;2.17;;
10586;SDS011;5341;47.606;7.576;2023-07-16T14:23:13;4.55;;;2.22;;
10586;SDS011;5341;47.606;7.576;2023-07-16T14:25:41;4.82;;;2.35;;
10586;SDS011;5341;47.606;7.576;2023-07-16T14:28:08;3.78;;;2.25;;
10586;SDS011;5341;47.606;7.576;2023-07-16T14:30:37;3.58;;;2.10;;
10586;SDS011;5341;47.606;7.576;2023-07-16T14:33:05;3.20;;;2.20;;
10586;SDS011;5341;47.606;7.576;2023-07-16T14:35:33;6.05;;;2.25;;
10586;SDS011;5341;47.606;7.576;2023-07-16T14:38:00;4.68;;;2.25;;
10586;SDS011;5341;47.606;7.576;2023-07-16T14:40:28;4.28;;;2.20;;
10586;SDS011;5341;47.606;7.576;2023-07-16T14:42:55;2.92;;;1.90;;
10586;SDS011;5341;47.606;7.576;2023-07-16T14:45:23;3.15;;;2.10;;
10586;SDS011;5341;47.606;7.576;2023-07-16T14:47:52;3.83;;;2.05;;
10586;SDS011;5341;47.606;7.576;2023-07-16T14:50:20;7.55;;;2.30;;
10586;SDS011;5341;47.606;7.576;2023-07-16T14:52:47;4.25;;;2.10;;
10586;SDS011;5341;47.606;7.576;2023-07-16T14:55:14;4.43;;;2.28;;
10586;SDS011;5341;47.606;7.576;2023-07-16T14:57:42;3.97;;;2.08;;
10586;SDS011;5341;47.606;7.576;2023-07-16T15:00:10;4.88;;;2.33;;
10586;SDS011;5341;47.606;7.576;2023-07-16T15:02:39;3.85;;;2.13;;
10586;SDS011;5341;47.606;7.576;2023-07-16T15:05:09;4.40;;;2.33;;
10586;SDS011;5341;47.606;7.576;2023-07-16T15:07:38;3.05;;;2.08;;
10586;SDS011;5341;47.606;7.576;2023-07-16T15:10:07;3.75;;;2.08;;